aviador You're here:

KBFW Decoded Metar

SILVER BAY in MN, USA
Report Time2017-11-23 19:34:00
UTC Time2017-11-23 20:28:37
Flight Rules vfr VFR
Wind210° at 06 kt
W.Decomp.*RWY 25: 4.6 kt HW 3.9 kt LCW
W.Rank210° ranks 18
Current wind is below 210° avg. (6.4)
Visibility9999 m
Phenomena:N/A
Clouds:N/A
Expected CloudBase > 2,400 ft AGL from Temp-Dew spread
CeilingNone
Temp03°C (ISA -10)
Dew Point-3°C (65% RH)
AAT-1.5°C
QNH1008 hPa
Density Alt138 ft
Elevation1,086 ft
Report Wrong Elevation
Raw Report
METAR KBFW 231934Z AUTO 21006KT 10SM CLR 03/M03 A2976 RMK AO2=

Extra information for KBFW:More info

Metar Taf Metar & Taf Last 4 Metars F.Rules Stats Wind Profile Meteogram Temp Stats Airport Information Weather charts Add Link Nearby VenuesMetar ALERT Operation Metar Decoded Social comments

AIRNAV info for KBFW